Time;durP1;ratioP1;P1;durP2;ratioP2;P2;SDS_P1;SDS_P2;PMS_P1;PMS_P2;Temp;Humidity;BMP_temperature;BMP_pressure;BME280_temperature;BME280_humidity;BME280_pressure;Samples;Min_cycle;Max_cycle;Signal;HPM_P1;HPM_P2
2022/10/07 00:02:05;;;;;;;7.30;1.48;;;;;;;17.45;42.53;102551.69;5019083;28;20037;-65
2022/10/07 00:04:31;;;;;;;4.53;1.10;;;;;;;17.41;42.04;102563.78;5018928;28;20478;-65
2022/10/07 00:06:56;;;;;;;5.32;1.10;;;;;;;17.36;41.74;102565.19;5019371;28;20055;-65
2022/10/07 00:09:22;;;;;;;3.95;0.98;;;;;;;17.35;41.79;102560.75;5002450;28;20033;-65
2022/10/07 00:11:47;;;;;;;8.60;2.05;;;;;;;17.32;41.02;102561.00;5002310;28;20033;-65
2022/10/07 00:14:13;;;;;;;6.80;1.40;;;;;;;17.35;41.77;102560.75;5018902;28;20032;-65
2022/10/07 00:16:39;;;;;;;6.50;1.35;;;;;;;17.38;42.23;102557.78;5018876;28;20021;-65
2022/10/07 00:19:09;;;;;;;3.30;0.63;;;;;;;17.39;41.80;102559.50;5002343;28;20059;-66
2022/10/07 00:21:35;;;;;;;3.35;1.25;;;;;;;17.38;42.07;102553.22;5002305;28;20021;-65
2022/10/07 00:24:01;;;;;;;6.03;1.10;;;;;;;17.35;42.04;102552.63;5018704;28;20033;-66
2022/10/07 00:26:29;;;;;;;5.80;1.40;;;;;;;17.34;41.79;102556.28;5018547;28;20411;-65
2022/10/07 00:28:55;;;;;;;3.63;1.30;;;;;;;17.30;42.50;102553.00;5002303;28;20394;-65
2022/10/07 00:31:25;;;;;;;3.67;0.77;;;;;;;17.24;42.25;102541.84;5018733;28;20029;-65
2022/10/07 00:33:51;;;;;;;4.20;1.23;;;;;;;17.22;41.52;102541.09;5002116;28;20029;-65
2022/10/07 00:36:19;;;;;;;8.32;1.38;;;;;;;17.19;41.80;102538.66;5018312;28;20475;-65
2022/10/07 00:38:49;;;;;;;6.40;1.35;;;;;;;17.17;42.78;102540.66;5036587;28;20363;-66
2022/10/07 00:41:20;;;;;;;6.18;1.30;;;;;;;17.14;42.69;102543.63;5018359;28;20056;-65
2022/10/07 00:43:46;;;;;;;4.00;1.27;;;;;;;17.11;42.11;102541.16;5001983;28;20426;-65
2022/10/07 00:46:20;;;;;;;8.35;1.40;;;;;;;17.08;42.56;102539.56;5018039;28;20029;-65
2022/10/07 00:48:46;;;;;;;3.72;0.90;;;;;;;17.05;42.18;102530.84;5018218;28;20108;-66
2022/10/07 00:51:15;;;;;;;5.10;1.08;;;;;;;17.04;41.48;102534.53;5001738;28;20487;-66
2022/10/07 00:53:41;;;;;;;6.68;1.15;;;;;;;17.03;42.74;102528.25;5018116;28;20057;-66
2022/10/07 00:56:06;;;;;;;5.50;1.25;;;;;;;17.02;43.04;102529.25;5001533;28;20529;-65
2022/10/07 00:58:35;;;;;;;8.45;1.17;;;;;;;17.01;43.03;102526.66;5001671;28;20029;-65
2022/10/07 01:01:00;;;;;;;7.25;1.75;;;;;;;17.00;43.11;102519.53;5001757;28;20048;-65
2022/10/07 01:03:26;;;;;;;1.85;1.00;;;;;;;16.96;42.93;102515.38;5001558;28;20037;-65
2022/10/07 01:05:52;;;;;;;4.63;1.48;;;;;;;16.94;42.71;102517.34;5001471;28;20057;-65
2022/10/07 01:08:19;;;;;;;2.63;1.40;;;;;;;16.88;42.59;102519.59;5035531;28;20549;-65
2022/10/07 01:10:44;;;;;;;5.65;1.20;;;;;;;16.86;42.61;102509.88;5001727;28;20437;-65
2022/10/07 01:13:24;;;;;;;6.25;1.20;;;;;;;16.82;42.98;102503.84;5035390;28;20061;-65
2022/10/07 01:15:55;;;;;;;4.93;1.08;;;;;;;16.78;43.02;102510.50;5035558;28;20025;-65
2022/10/07 01:18:35;;;;;;;2.05;1.05;;;;;;;16.73;42.93;102496.50;5001473;28;20068;-65
2022/10/07 01:21:08;;;;;;;3.85;1.35;;;;;;;16.72;41.69;102502.88;5017707;28;20083;-64
2022/10/07 01:23:50;;;;;;;13.73;2.60;;;;;;;16.69;42.95;102503.19;5001195;28;20033;-64
2022/10/07 01:26:40;;;;;;;7.03;1.55;;;;;;;16.66;43.33;102497.16;5035365;28;20026;-64
2022/10/07 01:29:11;;;;;;;6.45;1.35;;;;;;;16.62;41.79;102491.13;5035342;28;20475;-64
2022/10/07 01:31:46;;;;;;;3.05;1.27;;;;;;;16.61;42.42;102489.41;5017572;28;20390;-64
2022/10/07 01:34:13;;;;;;;3.72;1.20;;;;;;;16.61;42.48;102488.56;5001062;28;20025;-64
2022/10/07 01:36:39;;;;;;;4.40;1.33;;;;;;;16.58;42.09;102484.22;5017475;28;20021;-64
2022/10/07 01:39:10;;;;;;;5.30;1.60;;;;;;;16.58;42.56;102481.53;5017389;28;20048;-64
2022/10/07 01:41:36;;;;;;;6.18;1.40;;;;;;;16.56;42.12;102480.81;5017544;28;20026;-65
2022/10/07 01:44:02;;;;;;;5.05;1.42;;;;;;;16.56;42.81;102475.41;5000793;28;20089;-64
2022/10/07 01:46:29;;;;;;;3.75;1.10;;;;;;;16.53;41.76;102469.34;5017085;28;20104;-64
2022/10/07 01:48:56;;;;;;;6.28;1.40;;;;;;;16.53;41.69;102481.06;5000675;28;20465;-64
2022/10/07 01:51:23;;;;;;;3.53;1.58;;;;;;;16.49;41.84;102474.16;5000721;28;20091;-64
2022/10/07 01:54:11;;;;;;;5.88;1.38;;;;;;;16.46;43.43;102469.00;5034778;28;20036;-64
2022/10/07 01:56:55;;;;;;;3.97;1.05;;;;;;;16.41;41.83;102465.84;5000663;28;20030;-64
2022/10/07 01:59:32;;;;;;;1.17;1.05;;;;;;;16.36;43.07;102462.63;5034527;28;20029;-65
2022/10/07 02:02:27;;;;;;;3.70;1.10;;;;;;;16.30;43.13;102442.34;5016792;28;20391;-65
2022/10/07 02:05:14;;;;;;;2.35;1.02;;;;;;;16.31;43.11;102454.03;5030339;28;20406;-64
2022/10/07 02:08:00;;;;;;;4.80;1.30;;;;;;;16.30;43.16;102442.34;5034595;28;20105;-65
2022/10/07 02:10:34;;;;;;;3.58;0.75;;;;;;;16.29;42.33;102443.34;5016627;28;20540;-64
2022/10/07 02:13:05;;;;;;;3.08;1.15;;;;;;;16.28;43.01;102448.88;5034201;28;20049;-64
2022/10/07 02:15:51;;;;;;;2.08;0.82;;;;;;;16.27;41.90;102442.59;5016753;28;20052;-64
2022/10/07 02:18:18;;;;;;;5.60;1.00;;;;;;;16.25;43.03;102438.31;5016407;28;20065;-65
2022/10/07 02:20:48;;;;;;;8.57;1.38;;;;;;;16.23;42.19;102429.47;5000129;28;20079;-64
2022/10/07 02:23:15;;;;;;;5.75;0.90;;;;;;;16.23;42.21;102424.06;5000132;28;20561;-64
2022/10/07 02:25:51;;;;;;;6.47;1.05;;;;;;;16.21;42.29;102428.75;5016551;28;20113;-64
2022/10/07 02:28:19;;;;;;;5.40;1.70;;;;;;;16.18;43.19;102420.88;5016344;28;20025;-64
2022/10/07 02:30:47;;;;;;;6.38;1.02;;;;;;;16.19;42.68;102422.63;5016413;28;20510;-64
2022/10/07 02:33:13;;;;;;;6.75;1.25;;;;;;;16.16;43.60;102421.00;4999967;28;20021;-64
2022/10/07 02:35:50;;;;;;;2.78;0.93;;;;;;;16.14;42.17;102419.41;5016279;28;20071;-64
2022/10/07 02:38:17;;;;;;;2.60;0.90;;;;;;;16.12;43.61;102421.38;4999917;28;20479;-64
2022/10/07 02:41:04;;;;;;;6.40;0.90;;;;;;;16.10;43.79;102420.66;5000080;28;20033;-64
2022/10/07 02:43:35;;;;;;;2.80;0.75;;;;;;;16.07;43.62;102415.50;5016678;28;20497;-64
2022/10/07 02:46:23;;;;;;;3.97;0.77;;;;;;;16.04;42.38;102408.50;5016203;28;20433;-66
2022/10/07 02:49:08;;;;;;;4.93;1.25;;;;;;;16.03;43.35;102405.91;5015997;28;20030;-66
2022/10/07 02:51:45;;;;;;;6.45;1.90;;;;;;;15.98;43.97;102398.19;5016198;28;20021;-66
2022/10/07 02:54:12;;;;;;;7.70;1.00;;;;;;;16.00;43.73;102400.75;4999700;28;20059;-66
2022/10/07 02:56:39;;;;;;;2.90;1.15;;;;;;;16.00;43.80;102400.75;4999625;28;20048;-66
2022/10/07 02:59:06;;;;;;;4.00;1.48;;;;;;;15.97;42.77;102390.22;4998770;28;20433;-66
2022/10/07 03:01:36;;;;;;;3.60;0.90;;;;;;;15.98;42.73;102391.94;4999443;28;20056;-66
2022/10/07 03:04:02;;;;;;;4.63;1.02;;;;;;;15.94;43.29;102374.25;4999339;28;20124;-66
2022/10/07 03:06:30;;;;;;;5.80;1.15;;;;;;;15.92;43.14;102381.59;5015800;28;20112;-66
2022/10/07 03:08:56;;;;;;;4.72;0.90;;;;;;;15.91;42.51;102383.47;5000416;28;20033;-66
2022/10/07 03:11:22;;;;;;;4.78;1.30;;;;;;;15.87;42.60;102378.44;5015863;28;20087;-66
2022/10/07 03:13:48;;;;;;;1.95;0.95;;;;;;;15.85;42.60;102378.56;5012284;28;20458;-66
2022/10/07 03:16:13;;;;;;;1.30;0.63;;;;;;;15.84;43.43;102375.97;4996035;28;20103;-66
2022/10/07 03:18:40;;;;;;;2.50;1.10;;;;;;;15.81;42.52;102368.97;5012533;28;20053;-66
2022/10/07 03:21:05;;;;;;;3.30;0.98;;;;;;;15.80;43.10;102372.66;5012439;28;20083;-66
2022/10/07 03:23:31;;;;;;;1.70;1.02;;;;;;;15.78;43.89;102368.38;5012386;28;20394;-66
2022/10/07 03:25:57;;;;;;;7.82;1.20;;;;;;;15.76;42.67;102365.81;5012113;28;20033;-66
2022/10/07 03:28:24;;;;;;;7.15;1.20;;;;;;;15.72;43.44;102358.91;4995917;28;20068;-66
2022/10/07 03:30:50;;;;;;;6.65;1.40;;;;;;;15.74;43.66;102362.38;4995994;28;20029;-66
2022/10/07 03:33:16;;;;;;;1.67;0.93;;;;;;;15.73;43.54;102361.50;4995802;28;20029;-66
2022/10/07 03:35:42;;;;;;;6.82;1.73;;;;;;;15.73;44.17;102366.91;4996031;28;20479;-66
2022/10/07 03:38:09;;;;;;;5.80;1.27;;;;;;;15.73;42.42;102361.50;5013564;28;20028;-66
2022/10/07 03:40:35;;;;;;;2.85;1.00;;;;;;;15.72;43.91;102358.91;4995894;28;20483;-65
2022/10/07 03:43:01;;;;;;;1.15;0.68;;;;;;;15.69;43.99;102365.44;4995805;28;20116;-66
2022/10/07 03:45:28;;;;;;;1.55;0.75;;;;;;;15.66;43.71;102368.38;5012043;28;20501;-66
2022/10/07 03:47:53;;;;;;;5.15;0.93;;;;;;;15.65;43.38;102365.81;5012069;28;20029;-66
2022/10/07 03:50:19;;;;;;;7.35;1.15;;;;;;;15.64;43.99;102361.38;4995791;28;20033;-66
2022/10/07 03:52:44;;;;;;;3.53;1.30;;;;;;;15.61;42.89;102357.09;5013299;28;20471;-66
2022/10/07 03:55:10;;;;;;;6.97;0.77;;;;;;;15.58;43.64;102354.63;5011989;28;20152;-66
2022/10/07 03:57:51;;;;;;;4.72;1.20;;;;;;;15.56;42.70;102358.44;4979527;28;20057;-65
2022/10/07 04:00:19;;;;;;;3.45;1.08;;;;;;;15.54;43.14;102349.63;5012257;28;20021;-66
2022/10/07 04:02:46;;;;;;;3.97;0.88;;;;;;;15.53;43.26;102354.16;5012152;28;20064;-66
2022/10/07 04:05:11;;;;;;;7.28;1.20;;;;;;;15.54;43.98;102355.03;4995693;28;20037;-66
2022/10/07 04:07:37;;;;;;;4.07;1.17;;;;;;;15.54;44.41;102349.63;4995991;28;20046;-66
2022/10/07 04:10:02;;;;;;;1.35;1.00;;;;;;;15.50;43.58;102332.78;4995597;28;20034;-66
2022/10/07 04:12:30;;;;;;;3.22;0.75;;;;;;;15.46;44.04;102334.03;5015489;28;20545;-66
2022/10/07 04:14:55;;;;;;;3.80;0.80;;;;;;;15.46;43.26;102335.84;5015547;28;20025;-66
2022/10/07 04:17:23;;;;;;;4.25;1.02;;;;;;;15.46;43.45;102338.53;5015476;28;20108;-66
2022/10/07 04:19:48;;;;;;;4.95;1.15;;;;;;;15.46;43.26;102325.94;5015555;28;20034;-66
2022/10/07 04:22:13;;;;;;;3.22;1.20;;;;;;;15.47;43.20;102327.63;4999161;28;20498;-66
2022/10/07 04:24:39;;;;;;;6.00;1.05;;;;;;;15.43;42.86;102309.94;5015386;28;20052;-66
2022/10/07 04:27:04;;;;;;;4.57;1.00;;;;;;;15.46;44.00;102325.03;4999085;28;20057;-66
2022/10/07 04:29:30;;;;;;;5.00;1.45;;;;;;;15.42;44.01;102313.63;4998956;28;20034;-66
2022/10/07 04:31:57;;;;;;;4.80;1.00;;;;;;;15.47;43.35;102321.38;5016569;28;20021;-66
2022/10/07 04:34:23;;;;;;;4.05;0.90;;;;;;;15.48;44.29;102325.81;5028667;28;20053;-66
2022/10/07 04:36:48;;;;;;;6.13;0.90;;;;;;;15.46;43.64;102315.13;5035110;28;20056;-66
2022/10/07 04:39:14;;;;;;;5.10;0.90;;;;;;;15.49;43.61;102316.72;5034981;28;20033;-66
2022/10/07 04:41:39;;;;;;;3.20;1.08;;;;;;;15.51;43.30;102312.91;5034820;28;20033;-66
2022/10/07 04:44:04;;;;;;;2.95;0.70;;;;;;;15.53;44.16;102315.47;5036050;28;20087;-66
2022/10/07 04:46:31;;;;;;;4.15;1.10;;;;;;;15.54;44.26;102315.38;5034893;28;20108;-66
2022/10/07 04:48:56;;;;;;;8.77;0.90;;;;;;;15.55;44.21;102314.38;5018283;28;20026;-66
2022/10/07 04:51:22;;;;;;;6.32;1.20;;;;;;;15.58;44.21;102300.63;5018196;28;20036;-66
2022/10/07 04:53:53;;;;;;;1.67;0.80;;;;;;;15.60;44.63;102312.19;5001984;28;20064;-66
2022/10/07 04:56:18;;;;;;;4.18;1.35;;;;;;;15.62;43.90;102301.22;5018459;28;20045;-66
2022/10/07 04:58:44;;;;;;;2.17;0.98;;;;;;;15.61;43.64;102297.66;5035850;28;20030;-66
2022/10/07 05:01:10;;;;;;;3.67;1.00;;;;;;;15.65;44.35;102296.44;5018411;28;20053;-66
2022/10/07 05:03:39;;;;;;;11.43;1.45;;;;;;;15.65;44.01;102299.16;5001895;28;20044;-66
2022/10/07 05:06:05;;;;;;;2.78;0.82;;;;;;;15.67;43.11;102299.00;5035561;28;20510;-66
2022/10/07 05:08:30;;;;;;;5.50;0.98;;;;;;;15.66;43.36;102294.59;5034329;28;20038;-66
2022/10/07 05:11:00;;;;;;;3.83;1.10;;;;;;;15.65;44.21;102292.88;5034404;28;20037;-66
2022/10/07 05:13:26;;;;;;;7.18;2.47;;;;;;;15.65;43.98;102292.88;5017553;28;20045;-66
2022/10/07 05:15:59;;;;;;;3.72;0.80;;;;;;;15.61;43.97;102281.47;5034244;28;20022;-66
2022/10/07 05:18:26;;;;;;;7.35;0.98;;;;;;;15.62;44.55;102294.00;5035452;28;20033;-64
2022/10/07 05:20:51;;;;;;;3.22;1.88;;;;;;;15.61;43.73;102284.16;5017634;28;20025;-66
2022/10/07 05:23:22;;;;;;;2.90;0.70;;;;;;;15.60;44.60;102282.47;5033289;28;20472;-66
2022/10/07 05:25:58;;;;;;;3.08;0.80;;;;;;;15.59;43.73;102277.16;5034103;28;20025;-66
2022/10/07 05:28:24;;;;;;;3.92;1.85;;;;;;;15.59;44.61;102283.44;5035275;28;20028;-66
2022/10/07 05:31:00;;;;;;;6.47;1.08;;;;;;;15.58;43.36;102284.41;5017569;28;20025;-64
2022/10/07 05:33:26;;;;;;;2.38;0.90;;;;;;;15.58;43.06;102284.41;5033938;28;20415;-65
2022/10/07 05:35:51;;;;;;;2.72;0.90;;;;;;;15.58;43.80;102281.72;5034019;28;20068;-64
2022/10/07 05:38:16;;;;;;;2.40;0.85;;;;;;;15.59;44.74;102278.03;5033962;28;20029;-65
2022/10/07 05:40:42;;;;;;;18.33;1.70;;;;;;;15.60;43.53;102287.88;5034977;28;20034;-65
2022/10/07 05:43:09;;;;;;;4.38;1.48;;;;;;;15.60;43.93;102279.75;5033670;28;20059;-64
2022/10/07 05:45:34;;;;;;;3.65;0.85;;;;;;;15.61;43.43;102281.47;5033607;28;20109;-65
2022/10/07 05:48:00;;;;;;;5.03;1.33;;;;;;;15.62;44.27;102280.50;5034836;28;20029;-65
2022/10/07 05:50:25;;;;;;;4.57;2.35;;;;;;;15.64;43.70;102281.22;5000624;28;20025;-65
2022/10/07 05:52:51;;;;;;;3.40;0.85;;;;;;;15.66;43.45;102273.00;5017238;28;20038;-65
2022/10/07 05:55:17;;;;;;;4.22;1.02;;;;;;;15.67;44.19;102275.56;5033292;28;20037;-65
2022/10/07 05:57:42;;;;;;;10.07;1.40;;;;;;;15.68;43.62;102269.19;5033459;28;20049;-65
2022/10/07 06:00:08;;;;;;;4.05;1.02;;;;;;;15.68;44.99;102266.47;5016841;28;20030;-65
2022/10/07 06:02:34;;;;;;;2.90;1.00;;;;;;;15.79;44.74;102270.13;5034426;28;20108;-65
2022/10/07 06:05:00;;;;;;;4.60;1.15;;;;;;;15.84;44.26;102257.09;5016864;28;20395;-65
2022/10/07 06:07:25;;;;;;;3.90;1.00;;;;;;;15.91;44.06;102252.91;5016814;28;20025;-63
2022/10/07 06:15:20;;;;;;;5.18;1.08;;;;;;;16.22;43.38;102260.09;5039452;28;20457;-64
2022/10/07 06:17:45;;;;;;;6.07;1.33;;;;;;;16.35;44.27;102263.50;5036384;28;20064;-63
2022/10/07 06:20:14;;;;;;;3.08;0.88;;;;;;;16.46;43.37;102263.44;5036328;28;20417;-64
2022/10/07 06:22:39;;;;;;;5.70;1.10;;;;;;;16.57;43.82;102257.13;5036780;28;20520;-64
2022/10/07 06:25:05;;;;;;;7.20;1.55;;;;;;;16.69;43.45;102265.03;5036073;28;20053;-63
2022/10/07 06:27:31;;;;;;;4.75;0.90;;;;;;;16.79;44.82;102255.13;5036123;28;20033;-67
2022/10/07 06:29:57;;;;;;;4.18;0.80;;;;;;;16.91;43.84;102268.56;5036114;28;20035;-63
2022/10/07 06:32:22;;;;;;;3.30;1.00;;;;;;;17.04;44.13;102269.19;5019667;28;20271;-63
2022/10/07 06:34:48;;;;;;;6.63;0.90;;;;;;;17.23;44.10;102266.56;5019514;28;20025;-63
2022/10/07 06:37:13;;;;;;;7.13;1.65;;;;;;;17.37;43.67;102267.03;5035982;28;20047;-63
2022/10/07 06:39:38;;;;;;;5.57;1.27;;;;;;;17.52;44.29;102264.81;5053765;28;20562;-63
2022/10/07 06:42:04;;;;;;;9.02;1.42;;;;;;;17.67;43.34;102263.44;5035902;28;20024;-63
2022/10/07 06:44:30;;;;;;;6.07;1.13;;;;;;;17.85;43.61;102267.19;5036065;28;20482;-64
2022/10/07 06:46:55;;;;;;;4.03;1.17;;;;;;;18.04;43.94;102271.75;5019513;28;20406;-64
2022/10/07 06:49:21;;;;;;;8.63;2.28;;;;;;;18.21;43.68;102272.88;5019246;28;20547;-64
2022/10/07 06:51:46;;;;;;;7.43;1.10;;;;;;;18.38;43.53;102270.31;5035729;28;20497;-64
2022/10/07 06:54:12;;;;;;;11.70;1.52;;;;;;;18.53;43.35;102268.06;5035801;28;20591;-64
2022/10/07 06:56:38;;;;;;;6.85;1.25;;;;;;;18.69;43.50;102262.00;5035834;28;20057;-64
2022/10/07 06:59:04;;;;;;;9.23;1.00;;;;;;;18.90;43.62;102268.94;5035671;28;20536;-64
2022/10/07 07:01:29;;;;;;;6.75;1.52;;;;;;;19.04;43.62;102263.03;5053371;28;20025;-63
2022/10/07 07:03:55;;;;;;;7.28;0.90;;;;;;;19.22;42.88;102273.97;5035440;28;20029;-64
2022/10/07 07:06:20;;;;;;;11.88;1.55;;;;;;;19.35;43.10;102260.03;5035348;28;20043;-64
2022/10/07 07:08:48;;;;;;;8.27;2.58;;;;;;;19.43;42.74;102265.63;5035596;28;20028;-64
2022/10/07 07:13:58;;;;;;;7.45;1.58;;;;;;;19.69;42.72;102263.88;5038016;28;20060;-65
2022/10/07 07:16:23;;;;;;;4.85;1.23;;;;;;;19.84;42.56;102262.34;5053152;28;20466;-64
2022/10/07 07:18:51;;;;;;;2.80;1.02;;;;;;;19.98;42.22;102258.22;5018857;28;20032;-64
2022/10/07 07:21:16;;;;;;;6.82;1.27;;;;;;;20.12;42.66;102261.25;5018930;28;20055;-64
2022/10/07 07:23:42;;;;;;;8.48;1.25;;;;;;;20.24;42.24;102254.56;5053146;28;20474;-64
2022/10/07 07:26:07;;;;;;;6.53;1.88;;;;;;;20.41;41.94;102250.13;5035268;28;20033;-64
2022/10/07 07:28:33;;;;;;;7.82;1.35;;;;;;;20.62;41.57;102261.53;5002470;28;20044;-64
2022/10/07 07:30:58;;;;;;;9.23;1.30;;;;;;;20.83;41.65;102250.25;5053056;28;20486;-64
2022/10/07 07:33:23;;;;;;;5.60;1.75;;;;;;;21.01;41.71;102255.63;5035244;28;20474;-64
2022/10/07 07:35:49;;;;;;;6.00;1.42;;;;;;;21.22;41.67;102243.31;5052996;28;20045;-64
2022/10/07 07:38:15;;;;;;;3.25;1.00;;;;;;;21.45;40.72;102249.91;5035321;28;20025;-64
2022/10/07 07:40:41;;;;;;;5.70;1.25;;;;;;;21.56;41.57;102253.34;5053032;28;20556;-64
2022/10/07 07:43:07;;;;;;;7.25;0.88;;;;;;;21.73;40.58;102244.16;5018828;28;20029;-64
2022/10/07 07:45:36;;;;;;;9.80;1.85;;;;;;;21.90;41.34;102251.41;5036058;28;20029;-64
2022/10/07 07:48:02;;;;;;;8.48;1.05;;;;;;;22.04;40.82;102248.88;5039384;28;20079;-64
2022/10/07 07:50:27;;;;;;;6.15;1.50;;;;;;;22.23;40.94;102247.69;5022611;28;20021;-64
2022/10/07 07:52:53;;;;;;;16.73;1.35;;;;;;;22.47;40.64;102244.94;5039090;28;20064;-64
2022/10/07 07:55:21;;;;;;;8.10;1.83;;;;;;;22.71;40.15;102245.97;5022736;28;20454;-65
2022/10/07 07:57:47;;;;;;;4.65;0.80;;;;;;;22.86;40.06;102245.09;5056969;28;20025;-64
2022/10/07 08:00:14;;;;;;;10.65;1.38;;;;;;;23.02;39.76;102245.03;5006116;28;20028;-64
2022/10/07 08:02:41;;;;;;;11.95;2.55;;;;;;;23.16;39.40;102246.19;5039272;28;20028;-65
2022/10/07 08:05:06;;;;;;;6.07;1.75;;;;;;;23.30;40.28;102237.22;5038947;28;20080;-64
2022/10/07 08:07:33;;;;;;;8.68;1.65;;;;;;;23.46;39.05;102236.31;5056809;28;20056;-65
2022/10/07 08:09:59;;;;;;;12.70;1.85;;;;;;;23.61;39.35;102238.13;5039061;28;20490;-64
2022/10/07 08:12:24;;;;;;;8.65;1.23;;;;;;;23.72;39.27;102229.50;5035267;28;20046;-65
2022/10/07 08:14:51;;;;;;;10.45;1.27;;;;;;;23.89;38.98;102227.53;5035640;28;20022;-65
2022/10/07 08:17:16;;;;;;;6.60;1.20;;;;;;;24.04;38.67;102214.72;5035719;28;20025;-65
2022/10/07 08:19:41;;;;;;;6.50;2.08;;;;;;;24.23;38.46;102224.38;5019286;28;20031;-64
2022/10/07 08:22:08;;;;;;;9.15;1.15;;;;;;;24.42;38.68;102223.84;5018883;28;20095;-65
2022/10/07 08:24:33;;;;;;;5.78;1.25;;;;;;;24.62;38.46;102229.66;5018779;28;20478;-65
2022/10/07 08:26:59;;;;;;;5.18;1.80;;;;;;;24.82;38.15;102231.69;5018749;28;20075;-65
2022/10/07 08:29:24;;;;;;;10.88;1.83;;;;;;;24.96;37.82;102226.41;5018564;28;20029;-66
2022/10/07 08:31:50;;;;;;;4.45;1.52;;;;;;;25.09;37.40;102229.31;5036225;28;20414;-65
2022/10/07 08:34:15;;;;;;;6.35;1.42;;;;;;;25.22;37.73;102226.75;5034906;28;20094;-65
2022/10/07 08:36:45;;;;;;;8.73;1.45;;;;;;;25.27;37.86;102222.38;5018204;28;20096;-65
2022/10/07 08:39:11;;;;;;;5.90;1.20;;;;;;;25.39;36.93;102222.75;5018816;28;20025;-65
2022/10/07 08:42:04;;;;;;;7.97;2.50;;;;;;;25.55;36.58;102217.06;5035181;28;20029;-65
2022/10/07 08:44:34;;;;;;;11.57;2.17;;;;;;;25.73;36.98;102205.66;5034827;28;20108;-66
2022/10/07 08:47:29;;;;;;;8.18;1.35;;;;;;;25.96;37.00;102209.91;5034698;28;20105;-65
2022/10/07 08:50:08;;;;;;;6.82;1.63;;;;;;;26.18;36.32;102209.94;5034766;28;20018;-66
2022/10/07 08:52:39;;;;;;;5.57;1.55;;;;;;;26.34;36.08;102201.41;5035764;28;20060;-67
2022/10/07 08:55:26;;;;;;;5.68;1.48;;;;;;;26.54;35.75;102203.28;5034605;28;20024;-65
2022/10/07 08:58:07;;;;;;;5.35;1.45;;;;;;;26.69;35.83;102199.56;5033229;28;20451;-66
2022/10/07 09:00:52;;;;;;;7.57;1.42;;;;;;;26.79;35.35;102195.44;5035762;28;20060;-65
2022/10/07 09:03:43;;;;;;;9.23;1.80;;;;;;;26.91;35.51;102193.78;5034499;28;20053;-66
2022/10/07 09:06:14;;;;;;;8.98;1.90;;;;;;;27.04;35.03;102180.13;5035510;28;20029;-65
2022/10/07 09:08:45;;;;;;;4.82;1.40;;;;;;;27.19;35.00;102180.81;5017764;28;20067;-66
2022/10/07 09:11:17;;;;;;;10.20;1.90;;;;;;;27.31;35.29;102172.81;5034102;28;20607;-65
2022/10/07 09:13:52;;;;;;;11.65;1.52;;;;;;;27.49;34.91;102172.28;5033931;28;20042;-66
2022/10/07 09:16:29;;;;;;;11.85;1.48;;;;;;;27.66;34.57;102173.59;5034159;28;20582;-65
2022/10/07 09:18:57;;;;;;;11.05;1.38;;;;;;;27.97;34.39;102159.22;5035362;28;20021;-66
2022/10/07 09:21:36;;;;;;;11.30;1.58;;;;;;;28.56;33.90;102167.50;5034065;28;20032;-66
2022/10/07 09:24:23;;;;;;;6.93;1.48;;;;;;;30.14;32.26;102162.94;5034192;28;20029;-66
2022/10/07 09:26:54;;;;;;;7.85;1.08;;;;;;;31.85;29.97;102139.59;5033803;28;20026;-66
2022/10/07 09:29:25;;;;;;;4.03;1.35;;;;;;;31.24;31.12;102145.34;5034096;28;20025;-66
2022/10/07 09:31:52;;;;;;;5.63;1.58;;;;;;;31.00;31.23;102140.78;5034204;28;20033;-65
2022/10/07 09:34:23;;;;;;;6.25;1.45;;;;;;;31.02;31.55;102145.00;5017398;28;20030;-66
2022/10/07 09:37:25;;;;;;;9.80;1.43;;;;;;;31.28;31.29;102131.88;5033710;28;20025;-66
2022/10/07 09:39:52;;;;;;;13.38;1.63;;;;;;;31.52;31.13;102139.28;5033685;28;20025;-66
2022/10/07 09:42:28;;;;;;;9.18;1.02;;;;;;;31.71;30.93;102133.38;5034798;28;20548;-65
2022/10/07 09:44:55;;;;;;;11.80;1.45;;;;;;;31.96;30.78;102140.69;5033418;28;20031;-66
2022/10/07 09:47:25;;;;;;;6.68;1.70;;;;;;;32.18;30.61;102133.50;5017004;28;20025;-66
2022/10/07 09:50:01;;;;;;;7.32;1.50;;;;;;;32.31;30.08;102137.97;5033548;28;20434;-67
2022/10/07 09:52:30;;;;;;;8.02;1.63;;;;;;;32.54;30.18;102127.75;5033536;28;20108;-67
2022/10/07 09:55:51;;;;;;;7.55;1.25;;;;;;;32.71;29.60;102120.34;5033392;28;20026;-66
2022/10/07 09:58:30;;;;;;;10.10;1.77;;;;;;;32.71;29.56;102117.59;4993065;28;20046;-66
2022/10/07 10:00:57;;;;;;;4.22;1.20;;;;;;;32.73;29.77;102123.72;4993004;28;20042;-66
2022/10/07 10:03:30;;;;;;;5.35;1.13;;;;;;;32.76;29.28;102105.72;4993047;28;20085;-66
2022/10/07 10:05:58;;;;;;;7.28;2.33;;;;;;;32.93;29.10;102111.34;4992855;28;20377;-66
2022/10/07 10:08:36;;;;;;;7.65;1.45;;;;;;;33.17;28.87;102113.00;4992500;28;20026;-66
2022/10/07 10:11:27;;;;;;;5.07;1.83;;;;;;;33.56;28.21;102098.16;4992729;28;20034;-67
2022/10/07 10:13:53;;;;;;;9.77;1.60;;;;;;;33.79;28.79;102102.78;4987945;28;20046;-66
2022/10/07 10:16:24;;;;;;;9.07;1.60;;;;;;;34.01;28.63;102095.34;4976361;28;20053;-66
2022/10/07 10:18:54;;;;;;;8.48;1.30;;;;;;;34.18;28.16;102099.00;4992717;28;20613;-66
2022/10/07 10:21:26;;;;;;;6.65;0.98;;;;;;;34.13;27.49;102087.81;4992745;28;20502;-66
2022/10/07 10:23:53;;;;;;;3.00;0.95;;;;;;;34.24;27.63;102094.34;4992605;28;20494;-67
2022/10/07 10:26:30;;;;;;;8.23;1.60;;;;;;;34.32;27.72;102091.97;4976167;28;20125;-66
2022/10/07 10:29:17;;;;;;;5.78;1.15;;;;;;;34.46;27.08;102084.09;4976212;28;20026;-68
2022/10/07 10:32:29;;;;;;;8.77;1.23;;;;;;;34.39;27.31;102080.69;4990006;28;20478;-66
2022/10/07 10:35:17;;;;;;;6.85;1.00;;;;;;;34.34;27.91;102075.03;4991208;28;20037;-66
2022/10/07 10:37:57;;;;;;;6.32;1.20;;;;;;;34.30;27.47;102071.91;5033579;28;20029;-67
2022/10/07 10:40:31;;;;;;;7.35;1.00;;;;;;;34.44;27.50;102058.47;5032707;28;20398;-67
2022/10/07 10:43:23;;;;;;;6.35;1.13;;;;;;;34.60;26.66;102071.50;5033702;28;20093;-66
2022/10/07 10:46:27;;;;;;;10.00;1.20;;;;;;;34.68;26.26;102061.84;5033576;28;20029;-66
2022/10/07 10:48:53;;;;;;;7.28;1.67;;;;;;;34.67;26.08;102062.97;5033591;28;20029;-66
2022/10/07 10:51:41;;;;;;;7.45;1.77;;;;;;;34.76;25.83;102053.91;5032313;28;20085;-66
2022/10/07 10:54:13;;;;;;;5.35;1.40;;;;;;;34.77;26.04;102041.66;5033523;28;20021;-67
2022/10/07 10:56:52;;;;;;;;;;;;;;;34.96;27.10;102043.00;5034293;28;20384;-66
2022/10/07 10:59:56;;;;;;;6.55;1.13;;;;;;;35.14;26.15;102046.56;5032306;28;19935;-66
2022/10/07 11:02:37;;;;;;;5.80;1.55;;;;;;;35.27;26.05;102035.81;5027633;28;20114;-67
2022/10/07 11:05:05;;;;;;;5.72;1.58;;;;;;;35.20;25.90;102028.78;5032024;28;20021;-66
2022/10/07 11:07:54;;;;;;;5.50;1.55;;;;;;;35.15;25.69;102029.56;5032340;28;20025;-65
2022/10/07 11:10:30;;;;;;;6.35;1.02;;;;;;;35.06;26.16;102015.28;5032021;28;20018;-66
2022/10/07 11:13:14;;;;;;;4.40;1.02;;;;;;;34.96;25.82;102019.84;5040690;28;20502;-66
2022/10/07 11:15:59;;;;;;;5.32;1.10;;;;;;;34.89;25.65;102011.72;5035219;28;20101;-65
2022/10/07 11:18:36;;;;;;;5.70;1.45;;;;;;;34.96;25.34;102008.72;5053047;28;20103;-66
2022/10/07 11:21:06;;;;;;;5.10;1.20;;;;;;;34.84;25.80;102003.28;5018087;28;20394;-66
2022/10/07 11:23:43;;;;;;;5.03;1.10;;;;;;;34.64;26.12;101999.44;5035375;28;20478;-66
2022/10/07 11:26:32;;;;;;;11.25;1.42;;;;;;;34.55;25.14;101990.69;5035257;28;20513;-66
2022/10/07 11:29:13;;;;;;;4.15;1.25;;;;;;;34.59;25.61;101983.53;5018602;28;20063;-66
2022/10/07 11:31:41;;;;;;;2.67;1.20;;;;;;;34.75;25.96;101971.47;5018570;28;20029;-66
2022/10/07 11:34:18;;;;;;;7.68;1.70;;;;;;;34.81;25.91;101973.22;5018711;28;20063;-66
2022/10/07 11:36:54;;;;;;;11.13;1.40;;;;;;;34.83;25.83;101971.00;5035185;28;20052;-66
2022/10/07 11:39:20;;;;;;;8.27;1.13;;;;;;;34.83;25.12;101971.00;5034995;28;20025;-66
2022/10/07 11:42:00;;;;;;;7.18;1.80;;;;;;;34.83;24.94;101951.50;5018611;28;20548;-66
2022/10/07 11:44:31;;;;;;;5.57;1.30;;;;;;;34.79;25.46;101953.09;5035044;28;20502;-66
2022/10/07 11:46:59;;;;;;;9.50;1.40;;;;;;;34.83;24.81;101951.50;5034874;28;20055;-66
2022/10/07 11:49:30;;;;;;;5.75;1.92;;;;;;;34.80;24.86;101943.66;5035068;28;20025;-66